Time;durP1;ratioP1;P1;durP2;ratioP2;P2;SDS_P1;SDS_P2;PMS_P1;PMS_P2;Temp;Humidity;BMP_temperature;BMP_pressure;BME280_temperature;BME280_humidity;BME280_pressure;Samples;Min_cycle;Max_cycle;Signal;HPM_P1;HPM_P2
2021/03/25 00:01:39;;;;;;;30.10;3.90;;;-0.40;99.90;;;;;;4982551;28;20195;-72
2021/03/25 00:04:05;;;;;;;23.58;4.05;;;-0.40;99.90;;;;;;4982825;28;20231;-73
2021/03/25 00:06:36;;;;;;;25.67;4.18;;;-0.40;99.90;;;;;;4983940;28;20203;-72
2021/03/25 00:09:03;;;;;;;24.77;4.15;;;-0.50;99.90;;;;;;4981092;28;20195;-72
2021/03/25 00:11:28;;;;;;;24.52;3.65;;;-0.50;99.90;;;;;;4983244;28;20624;-73
2021/03/25 00:13:54;;;;;;;18.17;3.72;;;-0.60;99.90;;;;;;4982611;28;20333;-72
2021/03/25 00:16:20;;;;;;;20.27;3.58;;;-0.60;99.90;;;;;;4982682;28;20196;-72
2021/03/25 00:18:45;;;;;;;18.75;3.90;;;-0.60;99.90;;;;;;4983151;28;20665;-73
2021/03/25 00:21:12;;;;;;;33.60;3.97;;;-0.70;99.90;;;;;;4983599;28;20206;-73
2021/03/25 00:23:38;;;;;;;25.30;3.80;;;-0.70;99.90;;;;;;4986960;28;20241;-72
2021/03/25 00:26:05;;;;;;;17.30;3.15;;;-0.70;99.90;;;;;;4984481;28;20953;-73
2021/03/25 00:28:31;;;;;;;17.80;3.67;;;-0.70;99.90;;;;;;4982292;28;20207;-73
2021/03/25 00:30:57;;;;;;;20.52;3.50;;;-0.70;99.90;;;;;;4982874;28;20551;-72
2021/03/25 00:33:23;;;;;;;20.77;3.95;;;-0.70;99.90;;;;;;4981912;28;20203;-72
2021/03/25 00:35:50;;;;;;;22.73;3.97;;;-0.70;99.90;;;;;;4983458;28;20699;-72
2021/03/25 00:38:17;;;;;;;26.30;4.13;;;-0.80;99.90;;;;;;4983431;28;20222;-73
2021/03/25 00:40:44;;;;;;;20.63;3.50;;;-0.80;99.90;;;;;;4981753;28;20293;-72
2021/03/25 00:43:11;;;;;;;21.85;4.07;;;-0.70;99.90;;;;;;4983787;28;20203;-74
2021/03/25 00:45:40;;;;;;;28.58;4.38;;;-0.60;99.90;;;;;;4981657;28;20207;-72
2021/03/25 00:48:07;;;;;;;16.67;4.07;;;-0.70;99.90;;;;;;4981963;28;20213;-73
2021/03/25 00:50:54;;;;;;;28.63;3.97;;;-0.70;99.90;;;;;;4980780;28;20530;-72
2021/03/25 00:53:25;;;;;;;28.65;4.32;;;-0.70;99.90;;;;;;4979114;28;20203;-72
2021/03/25 00:55:51;;;;;;;20.85;4.35;;;-0.60;99.90;;;;;;4982467;28;20234;-72
2021/03/25 00:58:17;;;;;;;31.83;4.60;;;-0.60;99.90;;;;;;4997603;28;20674;-72
2021/03/25 01:00:44;;;;;;;27.38;4.45;;;-0.60;99.90;;;;;;4999059;28;20226;-72
2021/03/25 01:03:11;;;;;;;32.92;5.78;;;-0.60;99.90;;;;;;4981232;28;20211;-73
2021/03/25 01:05:37;;;;;;;38.33;5.32;;;-0.60;99.90;;;;;;4980224;28;20678;-71
2021/03/25 01:08:04;;;;;;;31.75;4.60;;;-0.60;99.90;;;;;;4982823;28;20206;-72
2021/03/25 01:10:35;;;;;;;22.48;4.35;;;-0.70;99.90;;;;;;4981715;28;20220;-72
2021/03/25 01:13:30;;;;;;;21.05;4.05;;;-0.80;99.90;;;;;;4998779;28;20732;-73
2021/03/25 01:15:56;;;;;;;21.98;4.75;;;-0.80;99.90;;;;;;4972592;28;20208;-72
2021/03/25 01:18:23;;;;;;;31.88;4.30;;;-0.80;99.90;;;;;;4990591;28;20202;-72
2021/03/25 01:20:48;;;;;;;35.55;5.20;;;-0.90;99.90;;;;;;4981993;28;20200;-71
2021/03/25 01:23:15;;;;;;;26.38;4.68;;;-0.90;99.90;;;;;;4983255;28;20569;-72
2021/03/25 01:25:42;;;;;;;34.58;5.68;;;-0.90;99.90;;;;;;4982630;28;20211;-71
2021/03/25 01:28:11;;;;;;;37.40;5.32;;;-0.80;99.90;;;;;;4983360;28;20238;-72
2021/03/25 01:30:37;;;;;;;26.55;5.50;;;-0.80;99.90;;;;;;4982505;28;20211;-72
2021/03/25 01:33:06;;;;;;;22.13;4.53;;;-0.90;99.90;;;;;;4982906;28;20198;-72
2021/03/25 01:35:33;;;;;;;20.08;4.00;;;-0.90;99.90;;;;;;4981030;28;20203;-72
2021/03/25 01:37:58;;;;;;;38.78;4.75;;;-1.00;99.90;;;;;;4978191;28;20236;-72
2021/03/25 01:40:30;;;;;;;35.13;5.40;;;-1.10;99.90;;;;;;4982579;28;20307;-73
2021/03/25 01:43:09;;;;;;;36.63;5.53;;;-1.10;99.90;;;;;;4983035;28;20210;-72
2021/03/25 01:45:41;;;;;;;23.80;4.93;;;-1.10;99.90;;;;;;4981855;28;20544;-72
2021/03/25 01:48:06;;;;;;;26.88;5.57;;;-1.10;99.90;;;;;;4981963;28;20214;-72
2021/03/25 01:50:32;;;;;;;42.15;5.50;;;-1.10;99.90;;;;;;4981071;28;20684;-73
2021/03/25 01:53:01;;;;;;;26.00;4.82;;;-1.20;99.90;;;;;;4983298;28;20203;-72
2021/03/25 01:55:59;;;;;;;33.63;5.13;;;-1.20;99.90;;;;;;4981198;28;20262;-72
2021/03/25 01:58:46;;;;;;;23.70;4.65;;;-1.30;99.90;;;;;;4959696;28;20203;-72
2021/03/25 02:04:23;;;;;;;36.67;5.15;;;-1.40;99.90;;;;;;5041148;23;20257;-81
2021/03/25 02:07:05;;;;;;;15.65;4.95;;;-1.40;99.90;;;;;;5043271;28;20206;-81
2021/03/25 02:09:49;;;;;;;31.17;5.85;;;-1.40;99.90;;;;;;5018934;28;20209;-82
2021/03/25 02:13:00;;;;;;;26.58;4.82;;;-1.50;99.90;;;;;;5039709;28;20268;-81
2021/03/25 02:15:53;;;;;;;36.83;4.93;;;-1.50;99.90;;;;;;5020133;28;20202;-80
2021/03/25 02:18:28;;;;;;;38.05;5.00;;;-1.50;99.90;;;;;;5023014;28;20190;-83
2021/03/25 02:21:12;;;;;;;22.10;5.03;;;-1.60;99.90;;;;;;5020358;28;20305;-81
2021/03/25 02:23:59;;;;;;;29.30;5.47;;;-1.60;99.90;;;;;;5030736;28;20683;-80
2021/03/25 02:26:32;;;;;;;28.33;5.45;;;-1.60;99.90;;;;;;5028786;28;20272;-81
2021/03/25 02:29:34;;;;;;;19.75;4.82;;;-1.60;99.90;;;;;;5019317;28;20221;-82
2021/03/25 02:32:06;;;;;;;20.65;4.63;;;-1.60;99.90;;;;;;5043253;28;20689;-81
2021/03/25 02:34:35;;;;;;;50.03;5.35;;;-1.60;99.90;;;;;;5040641;28;20194;-82
2021/03/25 02:37:10;;;;;;;57.63;5.50;;;-1.70;99.90;;;;;;5024847;28;20198;-81
2021/03/25 02:39:48;;;;;;;20.25;4.82;;;-1.70;99.90;;;;;;5043500;28;20197;-81
2021/03/25 02:42:18;;;;;;;43.30;5.60;;;-1.60;99.90;;;;;;5030080;28;20201;-81
2021/03/25 02:44:57;;;;;;;37.30;4.47;;;-1.60;99.90;;;;;;5023984;28;20209;-81
2021/03/25 02:47:23;;;;;;;52.03;5.80;;;-1.60;99.90;;;;;;5042956;28;20308;-84
2021/03/25 02:50:12;;;;;;;36.97;5.22;;;-1.60;99.90;;;;;;5021831;28;20210;-83
2021/03/25 02:52:43;;;;;;;35.05;4.90;;;-1.50;99.90;;;;;;5042885;28;20679;-85
2021/03/25 02:55:12;;;;;;;50.28;5.22;;;-1.40;99.90;;;;;;5022553;28;20190;-84
2021/03/25 02:57:58;;;;;;;31.80;4.47;;;-1.30;99.90;;;;;;5020117;28;20636;-83
2021/03/25 03:00:40;;;;;;;19.63;4.75;;;-1.40;99.90;;;;;;5020822;28;20198;-83
2021/03/25 03:03:14;;;;;;;30.83;4.72;;;-1.40;99.90;;;;;;5026452;28;20229;-84
2021/03/25 03:05:44;;;;;;;56.03;5.90;;;-1.50;99.90;;;;;;5040263;28;20196;-83
2021/03/25 03:08:18;;;;;;;35.60;4.68;;;-1.40;99.90;;;;;;5030029;28;20201;-84
2021/03/25 03:11:11;;;;;;;42.42;5.20;;;-1.40;99.90;;;;;;5025430;28;20201;-82
2021/03/25 03:13:42;;;;;;;40.30;5.25;;;-1.50;99.90;;;;;;5028188;28;20272;-83
2021/03/25 03:16:32;;;;;;;24.73;4.07;;;-1.60;99.90;;;;;;5040767;28;20231;-85
2021/03/25 03:19:27;;;;;;;30.00;4.85;;;-1.70;99.90;;;;;;5023537;28;20209;-84
2021/03/25 03:22:07;;;;;;;30.77;4.00;;;-1.70;99.90;;;;;;5037147;28;20212;-84
2021/03/25 03:24:34;;;;;;;24.85;4.30;;;-1.80;99.90;;;;;;5024628;28;20193;-83
2021/03/25 03:27:03;;;;;;;19.95;4.05;;;-1.90;99.90;;;;;;5025783;28;20193;-83
2021/03/25 03:29:31;;;;;;;30.73;4.68;;;-1.90;99.90;;;;;;5044703;28;20197;-82
2021/03/25 03:32:21;;;;;;;19.52;3.88;;;-2.00;99.90;;;;;;5024645;28;20210;-82
2021/03/25 03:34:48;;;;;;;38.47;4.60;;;-2.00;99.90;;;;;;5047534;28;20636;-83
2021/03/25 03:37:39;;;;;;;48.38;4.38;;;-2.00;99.90;;;;;;5025966;28;20194;-83
2021/03/25 03:40:13;;;;;;;34.65;4.60;;;-2.10;99.90;;;;;;5023903;28;20190;-83
2021/03/25 03:42:41;;;;;;;27.73;4.50;;;-2.10;99.90;;;;;;5027744;28;20209;-82
2021/03/25 03:45:10;;;;;;;19.85;4.95;;;-2.10;99.90;;;;;;5029067;28;20523;-87
2021/03/25 03:47:37;;;;;;;39.10;5.00;;;-2.20;99.90;;;;;;5021761;28;20724;-79
2021/03/25 03:50:13;;;;;;;21.77;3.90;;;-2.20;99.90;;;;;;5041225;28;20598;-82
2021/03/25 03:52:41;;;;;;;35.08;4.55;;;-2.20;99.90;;;;;;5025326;28;20206;-83
2021/03/25 03:55:10;;;;;;;39.13;4.55;;;-2.20;99.90;;;;;;5027927;28;20717;-79
2021/03/25 03:58:08;;;;;;;26.65;4.43;;;-2.10;99.90;;;;;;5028599;28;20670;-83
2021/03/25 04:00:55;;;;;;;20.40;4.18;;;-2.10;99.90;;;;;;5019707;28;20218;-82
2021/03/25 04:03:57;;;;;;;24.60;4.40;;;-2.00;99.90;;;;;;5036676;28;20225;-83
2021/03/25 04:06:31;;;;;;;21.65;3.83;;;-2.10;99.90;;;;;;5027849;28;20270;-82
2021/03/25 04:09:41;;;;;;;21.67;4.32;;;-2.10;99.90;;;;;;5044206;28;20197;-83
2021/03/25 04:12:18;;;;;;;21.88;4.53;;;-2.20;99.90;;;;;;5045348;28;20698;-83
2021/03/25 04:14:49;;;;;;;20.13;4.15;;;-2.30;99.90;;;;;;5044111;28;20189;-81
2021/03/25 04:17:31;;;;;;;25.63;3.80;;;-2.30;99.90;;;;;;5028793;28;20186;-83
2021/03/25 04:19:59;;;;;;;22.33;3.65;;;-2.30;99.90;;;;;;5038661;28;20205;-83
2021/03/25 04:22:30;;;;;;;23.40;4.10;;;-2.40;99.90;;;;;;5043407;28;20193;-82
2021/03/25 04:25:15;;;;;;;33.60;4.45;;;-2.40;99.90;;;;;;5028261;28;20201;-81
2021/03/25 04:28:13;;;;;;;30.77;4.78;;;-2.40;99.90;;;;;;5041119;28;20748;-82
2021/03/25 04:30:44;;;;;;;24.45;4.50;;;-2.30;99.90;;;;;;5010122;28;20220;-85
2021/03/25 04:33:14;;;;;;;21.42;4.05;;;-2.20;99.90;;;;;;5047702;28;20542;-82
2021/03/25 04:35:44;;;;;;;18.77;3.78;;;-2.20;99.90;;;;;;5021934;28;20198;-82
2021/03/25 04:38:27;;;;;;;22.10;4.40;;;-2.20;99.90;;;;;;5027403;28;20193;-82
2021/03/25 04:40:57;;;;;;;25.92;4.50;;;-2.20;99.90;;;;;;5045715;28;20578;-82
2021/03/25 04:43:24;;;;;;;29.10;4.35;;;-2.20;99.90;;;;;;5039225;28;20663;-81
2021/03/25 04:45:50;;;;;;;33.35;4.28;;;-2.20;99.90;;;;;;5028990;28;20193;-82
2021/03/25 04:48:19;;;;;;;25.42;4.53;;;-2.20;99.90;;;;;;5041480;28;20572;-82
2021/03/25 04:51:05;;;;;;;35.53;4.53;;;-2.20;99.90;;;;;;5036309;28;20232;-82
2021/03/25 04:53:33;;;;;;;30.70;4.60;;;-2.10;99.90;;;;;;5042220;28;20220;-86
2021/03/25 04:56:01;;;;;;;25.38;4.70;;;-2.10;99.90;;;;;;5027638;28;20200;-82
2021/03/25 04:58:34;;;;;;;35.70;4.30;;;-2.10;99.90;;;;;;5029237;28;20200;-85
2021/03/25 05:01:20;;;;;;;32.63;4.78;;;-2.00;99.90;;;;;;5042836;28;20255;-83
2021/03/25 05:03:48;;;;;;;26.40;4.13;;;-2.00;99.90;;;;;;5022199;28;20601;-83
2021/03/25 05:06:24;;;;;;;30.52;5.03;;;-2.00;99.90;;;;;;5024496;28;20297;-83
2021/03/25 05:08:54;;;;;;;20.55;4.03;;;-2.00;99.90;;;;;;5022127;28;20567;-83
2021/03/25 05:11:22;;;;;;;27.27;4.10;;;-1.90;99.90;;;;;;5030590;28;20610;-84
2021/03/25 05:13:48;;;;;;;24.35;3.95;;;-1.80;99.90;;;;;;5031183;28;20200;-83
2021/03/25 05:16:40;;;;;;;20.30;4.75;;;-1.70;99.90;;;;;;5026988;28;20190;-82
2021/03/25 05:19:16;;;;;;;24.05;4.68;;;-1.70;99.90;;;;;;5043617;28;20190;-82
2021/03/25 05:22:03;;;;;;;35.85;4.53;;;-1.60;99.90;;;;;;5049968;28;20200;-83
2021/03/25 05:24:54;;;;;;;22.63;4.50;;;-1.70;99.90;;;;;;5041936;28;20725;-81
2021/03/25 05:27:41;;;;;;;28.45;5.15;;;-1.70;99.90;;;;;;5040874;28;20297;-84
2021/03/25 05:30:25;;;;;;;28.90;4.55;;;-1.60;99.90;;;;;;5027564;28;20236;-83
2021/03/25 05:32:55;;;;;;;36.60;4.57;;;-1.50;99.90;;;;;;5046447;28;20208;-82
2021/03/25 05:35:29;;;;;;;33.97;4.35;;;-1.40;99.90;;;;;;5027743;28;20202;-81
2021/03/25 05:37:55;;;;;;;17.98;4.05;;;-1.30;99.90;;;;;;5047155;28;20196;-83
2021/03/25 05:40:26;;;;;;;27.27;4.55;;;-1.30;99.90;;;;;;5029600;28;20289;-83
2021/03/25 05:43:13;;;;;;;32.22;4.78;;;-1.20;99.90;;;;;;5034792;28;20196;-82
2021/03/25 05:45:55;;;;;;;24.02;4.70;;;-1.10;99.90;;;;;;5031220;28;20591;-83
2021/03/25 05:48:48;;;;;;;32.22;3.92;;;-1.00;99.90;;;;;;5046123;28;20197;-83
2021/03/25 05:51:42;;;;;;;20.25;3.90;;;-0.90;99.90;;;;;;5048437;28;20260;-82
2021/03/25 05:54:17;;;;;;;18.10;3.80;;;-0.90;99.90;;;;;;5021755;28;20693;-84
2021/03/25 05:56:58;;;;;;;14.60;4.30;;;-0.80;99.90;;;;;;5050354;28;20641;-83
2021/03/25 05:59:27;;;;;;;18.33;4.03;;;-0.70;99.90;;;;;;5036253;28;20582;-83
2021/03/25 06:02:20;;;;;;;18.95;4.30;;;-0.70;99.90;;;;;;5035065;28;20713;-83
2021/03/25 06:04:49;;;;;;;31.88;5.03;;;-0.60;99.90;;;;;;5047265;28;20723;-83
2021/03/25 06:07:17;;;;;;;15.65;4.25;;;-0.40;99.90;;;;;;5031771;28;20204;-83
2021/03/25 06:10:20;;;;;;;29.27;4.60;;;-0.20;99.90;;;;;;5031521;28;20208;-83
2021/03/25 06:13:27;;;;;;;21.95;4.63;;;0.00;99.90;;;;;;5045712;28;20197;-83
2021/03/25 06:16:26;;;;;;;30.38;4.68;;;0.10;99.90;;;;;;5050708;28;20278;-83
2021/03/25 06:18:58;;;;;;;24.48;5.15;;;0.30;99.90;;;;;;5045080;28;20201;-83
2021/03/25 06:21:45;;;;;;;26.60;5.28;;;0.60;99.90;;;;;;5033513;28;20690;-82
2021/03/25 06:24:51;;;;;;;20.80;4.30;;;0.80;99.90;;;;;;5047088;28;20663;-83
2021/03/25 06:27:41;;;;;;;28.75;4.72;;;0.90;99.90;;;;;;5019360;28;20211;-83
2021/03/25 06:30:19;;;;;;;21.85;4.63;;;1.00;99.90;;;;;;5045479;28;20194;-83
2021/03/25 06:32:53;;;;;;;27.33;5.38;;;1.10;99.90;;;;;;5045786;28;20248;-84
2021/03/25 06:35:40;;;;;;;22.42;4.50;;;1.30;99.90;;;;;;5051262;28;20208;-83
2021/03/25 06:38:16;;;;;;;15.43;4.75;;;1.40;99.90;;;;;;5049240;28;20190;-83
2021/03/25 06:40:50;;;;;;;22.63;4.35;;;1.60;99.90;;;;;;5037870;28;20197;-83
2021/03/25 06:43:26;;;;;;;23.13;4.50;;;1.70;99.90;;;;;;5052282;28;20190;-83
2021/03/25 06:46:18;;;;;;;15.55;4.00;;;1.90;99.90;;;;;;5047911;28;20213;-83
2021/03/25 06:48:52;;;;;;;16.17;4.20;;;2.10;99.90;;;;;;5047798;28;20201;-84
2021/03/25 06:51:20;;;;;;;21.55;4.57;;;2.40;99.90;;;;;;5029237;28;20683;-84
2021/03/25 06:53:46;;;;;;;13.43;3.88;;;2.50;99.90;;;;;;5047413;28;20193;-84
2021/03/25 06:56:21;;;;;;;12.63;3.58;;;2.70;99.90;;;;;;5036583;28;20568;-83
2021/03/25 06:58:53;;;;;;;13.95;3.45;;;2.80;99.90;;;;;;5045651;28;20195;-83
2021/03/25 07:01:39;;;;;;;7.75;3.03;;;2.90;99.90;;;;;;5029979;28;20207;-83
2021/03/25 07:04:12;;;;;;;16.30;3.30;;;2.90;99.90;;;;;;5024654;28;20225;-86
2021/03/25 07:06:38;;;;;;;12.20;3.35;;;3.10;99.90;;;;;;5030825;28;20560;-83
2021/03/25 07:09:04;;;;;;;16.98;3.70;;;3.20;99.90;;;;;;5032932;28;20711;-83
2021/03/25 07:11:32;;;;;;;15.30;3.30;;;3.40;99.90;;;;;;5030632;28;20217;-83
2021/03/25 07:14:21;;;;;;;10.32;2.47;;;3.50;99.90;;;;;;5049386;28;20193;-83
2021/03/25 07:16:48;;;;;;;18.15;3.10;;;3.70;99.90;;;;;;5052451;28;20215;-83
2021/03/25 07:19:18;;;;;;;17.42;2.88;;;3.90;99.90;;;;;;5038168;28;20201;-83
2021/03/25 07:21:49;;;;;;;20.15;3.22;;;4.00;99.90;;;;;;5033136;28;20190;-82
2021/03/25 07:24:34;;;;;;;18.63;3.15;;;4.10;99.90;;;;;;5035258;28;20197;-82
2021/03/25 07:27:12;;;;;;;13.77;3.47;;;4.40;99.90;;;;;;5040935;28;20205;-85
2021/03/25 07:29:41;;;;;;;10.88;2.53;;;4.50;99.90;;;;;;5036916;28;20263;-83
2021/03/25 07:32:10;;;;;;;15.60;2.45;;;4.60;99.90;;;;;;5034115;28;20209;-82
2021/03/25 07:34:45;;;;;;;18.80;2.63;;;4.80;99.90;;;;;;5037498;28;20602;-82
2021/03/25 07:37:15;;;;;;;11.23;2.97;;;4.90;99.90;;;;;;5054299;28;20193;-82
2021/03/25 07:39:50;;;;;;;14.70;2.38;;;5.00;99.90;;;;;;5036684;28;20194;-83
2021/03/25 07:42:30;;;;;;;11.60;2.70;;;5.20;99.90;;;;;;5031947;28;20219;-81
2021/03/25 07:45:16;;;;;;;11.93;2.58;;;5.30;99.90;;;;;;5027460;28;20235;-82
2021/03/25 07:47:42;;;;;;;13.60;2.72;;;5.40;99.90;;;;;;5044443;28;20205;-82
2021/03/25 07:50:21;;;;;;;8.43;2.20;;;5.60;99.90;;;;;;5027269;28;20224;-83
2021/03/25 07:52:47;;;;;;;13.65;2.78;;;5.60;99.90;;;;;;5040055;28;20210;-83
2021/03/25 07:55:19;;;;;;;13.95;2.33;;;5.60;99.90;;;;;;5046251;28;20648;-83
2021/03/25 07:57:47;;;;;;;8.98;2.17;;;5.60;99.90;;;;;;5042066;28;20284;-83
2021/03/25 08:00:34;;;;;;;11.05;2.40;;;5.90;99.90;;;;;;5024893;28;20197;-83
2021/03/25 08:03:19;;;;;;;11.43;2.58;;;6.10;99.90;;;;;;5039154;28;20243;-83
2021/03/25 08:05:48;;;;;;;12.05;2.67;;;6.40;99.90;;;;;;5048531;28;20681;-84
2021/03/25 08:08:32;;;;;;;8.43;2.20;;;6.40;99.90;;;;;;5026284;28;20189;-83
2021/03/25 08:11:17;;;;;;;12.15;2.70;;;6.40;99.90;;;;;;5027852;28;20507;-83
2021/03/25 08:14:02;;;;;;;17.23;2.80;;;6.60;99.90;;;;;;5021142;28;20292;-83
2021/03/25 08:16:31;;;;;;;18.42;2.90;;;6.80;99.90;;;;;;5027004;28;20205;-84
2021/03/25 08:19:45;;;;;;;9.07;2.42;;;7.00;99.90;;;;;;5030799;28;20189;-83
2021/03/25 08:22:40;;;;;;;12.93;2.50;;;7.10;99.90;;;;;;5022331;28;20205;-83
2021/03/25 08:25:31;;;;;;;13.82;2.30;;;7.30;99.90;;;;;;5037390;28;20588;-86
2021/03/25 08:28:27;;;;;;;12.23;2.25;;;7.30;99.90;;;;;;5038619;28;20268;-85
2021/03/25 08:31:23;;;;;;;15.23;2.55;;;7.30;99.90;;;;;;5025621;28;20224;-84
2021/03/25 08:34:12;;;;;;;15.73;2.78;;;7.50;99.90;;;;;;5039669;28;20197;-83
2021/03/25 08:37:02;;;;;;;14.48;2.22;;;7.70;99.90;;;;;;5048323;28;20213;-85
2021/03/25 08:39:36;;;;;;;11.10;2.22;;;7.80;99.90;;;;;;5026168;28;20202;-83
2021/03/25 08:42:19;;;;;;;12.85;2.33;;;8.00;99.90;;;;;;5048072;28;20204;-84
2021/03/25 08:45:10;;;;;;;9.50;2.58;;;8.10;99.90;;;;;;5027911;28;20244;-84
2021/03/25 08:47:42;;;;;;;11.13;2.40;;;8.30;99.90;;;;;;5042584;28;20208;-83
2021/03/25 08:50:40;;;;;;;9.07;2.45;;;8.40;99.90;;;;;;5022767;28;20247;-84
2021/03/25 08:53:26;;;;;;;9.90;2.50;;;8.50;99.90;;;;;;5033211;28;20197;-84
2021/03/25 08:55:55;;;;;;;9.02;2.42;;;8.80;99.90;;;;;;5044045;28;20198;-84
2021/03/25 08:58:26;;;;;;;13.90;2.70;;;9.10;99.90;;;;;;5026807;28;20651;-84
2021/03/25 09:00:56;;;;;;;7.93;2.88;;;9.30;99.90;;;;;;5023197;28;20208;-84
2021/03/25 09:03:26;;;;;;;17.35;3.17;;;9.00;99.90;;;;;;5029608;28;20328;-78
2021/03/25 09:06:04;;;;;;;14.88;2.83;;;9.10;99.90;;;;;;5039019;28;20330;-83
2021/03/25 09:08:33;;;;;;;18.65;3.05;;;9.10;99.90;;;;;;5047014;28;20196;-79
2021/03/25 09:11:06;;;;;;;16.73;3.10;;;9.30;99.90;;;;;;5027339;28;20212;-83
2021/03/25 09:13:37;;;;;;;14.30;3.08;;;9.50;99.90;;;;;;5032131;28;20525;-82
2021/03/25 09:16:23;;;;;;;15.05;2.85;;;9.50;99.90;;;;;;5045814;28;20185;-84
2021/03/25 09:18:50;;;;;;;14.40;3.22;;;9.10;99.90;;;;;;5029276;28;20216;-84
2021/03/25 09:21:28;;;;;;;13.30;2.72;;;8.80;99.90;;;;;;5037751;28;20194;-85
2021/03/25 09:24:00;;;;;;;13.82;2.97;;;8.90;99.90;;;;;;5028515;28;20205;-85
2021/03/25 09:26:25;;;;;;;19.42;2.67;;;9.50;99.90;;;;;;5042634;28;20806;-84
2021/03/25 09:29:03;;;;;;;10.93;2.70;;;9.60;99.90;;;;;;5046499;28;20197;-83
2021/03/25 09:31:31;;;;;;;13.18;2.55;;;9.50;99.90;;;;;;5048772;28;20737;-83
2021/03/25 09:33:59;;;;;;;13.13;2.85;;;9.80;99.90;;;;;;5033975;28;20190;-83
2021/03/25 09:36:27;;;;;;;11.02;2.50;;;10.10;99.90;;;;;;5033978;28;20319;-84
2021/03/25 09:38:59;;;;;;;6.53;2.40;;;10.50;99.90;;;;;;5041739;28;20327;-84
2021/03/25 09:41:24;;;;;;;12.27;2.17;;;10.70;99.90;;;;;;5044609;28;20454;-84
2021/03/25 09:43:53;;;;;;;11.52;2.30;;;10.90;99.90;;;;;;5045040;28;20204;-86
2021/03/25 09:46:39;;;;;;;8.30;2.40;;;11.20;99.90;;;;;;5043035;28;20751;-84
2021/03/25 09:49:29;;;;;;;7.15;2.20;;;11.80;99.90;;;;;;5042990;28;20201;-85
2021/03/25 09:52:07;;;;;;;9.60;2.45;;;12.50;99.90;;;;;;5041224;28;20205;-83
2021/03/25 09:54:52;;;;;;;11.65;3.20;;;12.50;99.90;;;;;;5042681;28;20208;-84
2021/03/25 09:57:26;;;;;;;14.10;2.50;;;11.90;99.90;;;;;;5042284;28;20330;-85
2021/03/25 10:00:05;;;;;;;9.27;2.72;;;11.40;99.90;;;;;;5040941;28;20197;-84
2021/03/25 10:02:48;;;;;;;9.13;2.70;;;11.00;99.90;;;;;;5020683;28;20707;-84
2021/03/25 10:05:26;;;;;;;9.40;2.70;;;10.60;99.90;;;;;;5045139;28;20545;-84
2021/03/25 10:07:56;;;;;;;8.13;2.80;;;10.20;99.90;;;;;;5041455;28;20201;-84
2021/03/25 10:10:31;;;;;;;13.57;2.42;;;9.80;99.90;;;;;;5042624;28;20239;-83
2021/03/25 10:13:06;;;;;;;16.58;2.85;;;9.70;99.90;;;;;;5042596;28;20190;-84
2021/03/25 10:15:41;;;;;;;13.48;2.40;;;9.50;99.90;;;;;;5029403;28;20202;-84
2021/03/25 10:18:14;;;;;;;16.63;3.00;;;9.40;99.90;;;;;;5021565;28;20194;-84
2021/03/25 10:20:59;;;;;;;11.80;2.50;;;9.20;99.90;;;;;;5042237;28;20225;-84
2021/03/25 10:23:48;;;;;;;11.27;2.80;;;9.00;99.90;;;;;;5044376;28;20574;-84
2021/03/25 10:26:36;;;;;;;14.93;2.55;;;8.70;99.90;;;;;;5043969;28;20201;-83
2021/03/25 10:29:11;;;;;;;12.82;2.58;;;8.30;99.90;;;;;;5040310;28;20233;-84
2021/03/25 10:31:46;;;;;;;7.80;2.53;;;8.10;99.90;;;;;;5039228;28;20590;-82
2021/03/25 10:34:22;;;;;;;19.33;3.30;;;7.90;99.90;;;;;;5023925;28;20255;-85
2021/03/25 10:36:55;;;;;;;8.48;2.97;;;7.60;99.90;;;;;;5022766;28;20201;-84
2021/03/25 10:39:34;;;;;;;11.20;2.53;;;7.50;99.90;;;;;;5048418;28;20189;-84
2021/03/25 10:42:25;;;;;;;19.85;3.38;;;7.30;99.90;;;;;;5037537;28;20210;-83
2021/03/25 10:44:51;;;;;;;14.38;2.70;;;7.20;99.90;;;;;;5042803;28;20209;-83
2021/03/25 10:47:31;;;;;;;13.98;2.90;;;7.10;99.90;;;;;;5026538;28;20216;-83
2021/03/25 10:49:59;;;;;;;12.55;3.08;;;7.10;99.90;;;;;;5027092;28;20272;-84
2021/03/25 10:52:36;;;;;;;14.23;3.15;;;7.30;99.90;;;;;;5034444;28;20541;-83
2021/03/25 10:55:06;;;;;;;12.93;3.30;;;7.40;99.90;;;;;;5047048;28;20197;-82
2021/03/25 10:57:32;;;;;;;15.52;3.25;;;7.50;99.90;;;;;;5031191;28;20212;-83
2021/03/25 11:00:15;;;;;;;10.57;3.03;;;7.60;99.90;;;;;;5029727;28;20612;-84
2021/03/25 11:02:44;;;;;;;11.63;2.75;;;7.70;99.90;;;;;;5028088;28;20232;-84
2021/03/25 11:05:25;;;;;;;9.82;3.28;;;7.60;99.90;;;;;;5032179;28;20553;-83
2021/03/25 11:08:00;;;;;;;19.33;3.30;;;7.60;99.90;;;;;;5030430;28;20231;-84
2021/03/25 11:10:33;;;;;;;12.65;2.85;;;7.60;99.90;;;;;;5054494;28;20197;-85
2021/03/25 11:13:15;;;;;;;15.93;3.28;;;7.70;99.90;;;;;;5047814;28;20468;-84
2021/03/25 11:15:47;;;;;;;22.58;3.40;;;7.70;99.90;;;;;;5026376;28;20289;-84
2021/03/25 11:18:24;;;;;;;13.13;2.90;;;7.70;99.90;;;;;;5031279;28;20193;-84
2021/03/25 11:20:51;;;;;;;11.35;2.80;;;7.60;99.90;;;;;;5022609;28;20614;-84
2021/03/25 11:23:23;;;;;;;12.48;2.83;;;7.50;99.90;;;;;;5030824;28;20197;-85
2021/03/25 11:26:00;;;;;;;8.95;2.63;;;7.50;99.90;;;;;;5047556;28;20679;-85
2021/03/25 11:28:30;;;;;;;19.83;3.45;;;7.50;99.90;;;;;;5038476;28;20296;-83
2021/03/25 11:31:17;;;;;;;9.88;2.85;;;7.60;99.90;;;;;;5044725;28;20693;-82
2021/03/25 11:33:44;;;;;;;11.27;3.22;;;7.70;99.90;;;;;;5026746;28;20204;-83
2021/03/25 11:36:11;;;;;;;13.73;3.03;;;7.80;99.90;;;;;;5032843;28;20189;-84
2021/03/25 11:38:41;;;;;;;10.57;3.15;;;7.90;99.90;;;;;;5028802;28;20623;-82
2021/03/25 11:41:32;;;;;;;20.13;3.90;;;8.00;99.90;;;;;;5020135;28;20232;-83
2021/03/25 11:44:01;;;;;;;13.95;3.45;;;8.20;99.90;;;;;;5027514;28;20316;-83
2021/03/25 11:46:40;;;;;;;15.40;3.83;;;8.30;99.90;;;;;;5042990;28;20530;-83
2021/03/25 11:49:18;;;;;;;17.20;3.00;;;8.30;99.90;;;;;;5023088;28;20224;-84
2021/03/25 11:52:00;;;;;;;12.93;3.10;;;8.20;99.90;;;;;;5024207;28;20235;-84
2021/03/25 11:54:34;;;;;;;10.52;3.35;;;8.10;99.90;;;;;;5036755;28;20277;-84
2021/03/25 11:57:26;;;;;;;15.90;3.40;;;8.00;99.90;;;;;;5026810;28;20197;-84
2021/03/25 12:00:09;;;;;;;16.60;3.42;;;7.80;99.90;;;;;;5036344;28;20346;-84
2021/03/25 12:02:36;;;;;;;14.55;3.47;;;7.70;99.90;;;;;;5041729;28;20601;-83
2021/03/25 12:05:29;;;;;;;13.40;3.42;;;7.60;99.90;;;;;;5045544;28;20224;-84
2021/03/25 12:08:19;;;;;;;14.18;3.53;;;7.50;99.90;;;;;;5041022;28;20204;-85
2021/03/25 12:10:45;;;;;;;11.55;3.25;;;7.50;99.90;;;;;;5044606;28;20205;-83
2021/03/25 12:13:12;;;;;;;15.82;3.20;;;7.50;99.90;;;;;;5045983;28;20193;-83
2021/03/25 12:15:38;;;;;;;14.40;3.80;;;7.50;99.90;;;;;;5030664;28;20209;-84
2021/03/25 12:18:22;;;;;;;15.10;3.22;;;7.50;99.90;;;;;;5043941;28;20252;-84
2021/03/25 12:20:48;;;;;;;15.30;3.92;;;7.50;99.90;;;;;;5025882;28;20530;-83
2021/03/25 12:23:20;;;;;;;11.48;3.88;;;7.50;99.90;;;;;;5044463;28;20638;-84
2021/03/25 12:25:49;;;;;;;12.85;3.63;;;7.50;99.90;;;;;;5028959;28;20263;-84
2021/03/25 12:28:16;;;;;;;14.82;3.45;;;7.50;99.90;;;;;;5043433;28;20271;-83
2021/03/25 12:30:42;;;;;;;12.18;3.13;;;7.40;99.90;;;;;;5027314;28;20239;-82
2021/03/25 12:33:23;;;;;;;21.23;3.80;;;7.50;99.90;;;;;;5043464;28;20205;-82
2021/03/25 12:35:49;;;;;;;13.18;3.72;;;7.50;99.90;;;;;;5046453;28;20572;-83
2021/03/25 12:38:16;;;;;;;14.65;3.72;;;7.60;99.90;;;;;;5029295;28;20189;-84
2021/03/25 12:40:42;;;;;;;13.80;3.25;;;7.70;99.90;;;;;;5032521;28;20545;-83
2021/03/25 12:43:10;;;;;;;16.98;3.50;;;7.80;99.90;;;;;;5041276;28;20266;-84
2021/03/25 12:45:39;;;;;;;15.38;3.60;;;8.00;99.90;;;;;;5024506;28;20247;-83
2021/03/25 12:48:06;;;;;;;10.77;3.22;;;8.00;99.90;;;;;;5044790;28;20202;-85
2021/03/25 12:50:31;;;;;;;10.25;3.58;;;8.20;99.90;;;;;;5041872;28;20659;-84
2021/03/25 12:52:58;;;;;;;12.95;3.35;;;8.30;99.90;;;;;;5027824;28;20267;-84
2021/03/25 12:55:25;;;;;;;11.57;3.20;;;8.30;99.90;;;;;;5029713;28;20189;-84
2021/03/25 12:57:53;;;;;;;16.50;3.80;;;8.40;99.90;;;;;;5025786;28;20212;-84
2021/03/25 13:00:24;;;;;;;20.65;3.88;;;8.50;99.90;;;;;;5045013;28;20280;-85
2021/03/25 13:02:50;;;;;;;9.98;3.42;;;8.70;99.90;;;;;;5039028;28;20229;-84
2021/03/25 13:05:16;;;;;;;17.30;3.30;;;8.80;99.90;;;;;;5026711;28;20193;-83
2021/03/25 13:07:42;;;;;;;14.85;3.50;;;8.80;99.90;;;;;;5027856;28;20276;-83
2021/03/25 13:10:09;;;;;;;18.98;4.63;;;8.80;99.90;;;;;;5027437;28;20346;-83
2021/03/25 13:12:35;;;;;;;12.95;3.53;;;8.90;99.90;;;;;;5025927;28;20292;-84
2021/03/25 13:15:00;;;;;;;17.40;4.10;;;8.80;99.90;;;;;;5042885;28;20539;-84
2021/03/25 13:17:27;;;;;;;12.30;3.15;;;8.90;99.90;;;;;;5027532;28;20193;-84
2021/03/25 13:19:53;;;;;;;17.88;2.85;;;9.00;99.90;;;;;;5039622;28;20204;-84
2021/03/25 13:22:18;;;;;;;13.35;3.00;;;9.10;99.90;;;;;;5029243;28;20200;-84
2021/03/25 13:24:46;;;;;;;15.07;3.58;;;9.20;99.90;;;;;;5026164;28;20234;-84
2021/03/25 13:27:12;;;;;;;9.98;3.30;;;9.30;99.90;;;;;;5046703;28;20208;-84
2021/03/25 13:29:37;;;;;;;11.70;3.15;;;9.50;99.90;;;;;;5046253;28;20211;-83